Sbi Magnum — V7FQ8 — position and weather

sailwx.info

Track history (hours):
 
Tides and Currents Weather Stations Pressure Air Temp Water Temp Dewpoint Dewpoint Depression Visibility Wind Speed Wind Dir Waves Ship Positions

Sbi Magnum

Last reported at 2018-Jul-15 19:26 UTC. Time now 2018-Jul-20 04:45 UTC.
Position N 23°19' E 117°31'.

Length 292 m; draft 8.7 m.

Type: Cargo ship. MMSI: 538005643.

Date/timePositionNaut miles runAvg speedWind from/ knotsBaromVisibWave heightAir tempDewpointWater temp
2018-Jul-15 19:26N 23°19' E 117°31'716.7
2018-Jul-15 19:00N 23°23' E 117°36'916.9
2018-Jul-15 18:30N 23°28' E 117°44'916.6
2018-Jul-15 17:59N 23°32' E 117°53'816.3
2018-Jul-15 17:30N 23°37' E 117°59'1215.9
2018-Jul-15 16:44N 23°46' E 118°08'415.8
2018-Jul-15 16:27N 23°48' E 118°12'1215.5
2018-Jul-15 15:41N 23°56' E 118°23'1715.1
2018-Jul-15 14:33N 24°07' E 118°37'215.4
2018-Jul-15 14:24N 24°08' E 118°39'1215.3
2018-Jul-15 13:35N 24°15' E 118°51'  
2018-Jul-11 09:55N 30°38' E 122°03'  
2018-Jul-09 04:34N 36°02' E 120°16'1 8.8
2018-Jul-09 04:29N 36°02' E 120°15'3 4.0
2018-Jul-09 03:39N 36°00' E 120°12'0 0.0
2018-Jul-09 02:07N 36°00' E 120°12'0 0.0
2018-Jul-09 00:54N 36°00' E 120°12'0 0.0
2018-Jul-09 00:06N 36°00' E 120°12'0 0.0
2018-Jul-08 12:34N 36°00' E 120°12'0 0.0
2018-Jul-08 12:21N 36°00' E 120°12'0 0.0
2018-Jul-08 03:02N 36°00' E 120°12'0 0.0
2018-Jul-08 02:56N 36°00' E 120°12'  
Track history (hours):
 
Tides and Currents Weather Stations Pressure Air Temp Water Temp Dewpoint Dewpoint Depression Visibility Wind Speed Wind Dir Waves Ship Positions

Sbi Magnum

Last reported at 2018-Jul-15 19:26 UTC. Time now 2018-Jul-20 04:45 UTC.
Position N 23°19' E 117°31'.

Length 292 m; draft 8.7 m.

Type: Cargo ship. MMSI: 538005643.

Date/timePositionNaut miles runAvg speedWind from/ knotsBaromVisibWave heightAir tempDewpointWater temp
2018-Jul-15 19:26N 23°19' E 117°31'716.7
2018-Jul-15 19:00N 23°23' E 117°36'916.9
2018-Jul-15 18:30N 23°28' E 117°44'916.6
2018-Jul-15 17:59N 23°32' E 117°53'816.3
2018-Jul-15 17:30N 23°37' E 117°59'1215.9
2018-Jul-15 16:44N 23°46' E 118°08'415.8
2018-Jul-15 16:27N 23°48' E 118°12'1215.5
2018-Jul-15 15:41N 23°56' E 118°23'1715.1
2018-Jul-15 14:33N 24°07' E 118°37'215.4
2018-Jul-15 14:24N 24°08' E 118°39'1215.3
2018-Jul-15 13:35N 24°15' E 118°51'  
2018-Jul-11 09:55N 30°38' E 122°03'  
2018-Jul-09 04:34N 36°02' E 120°16'1 8.8
2018-Jul-09 04:29N 36°02' E 120°15'3 4.0
2018-Jul-09 03:39N 36°00' E 120°12'0 0.0
2018-Jul-09 02:07N 36°00' E 120°12'0 0.0
2018-Jul-09 00:54N 36°00' E 120°12'0 0.0
2018-Jul-09 00:06N 36°00' E 120°12'0 0.0
2018-Jul-08 12:34N 36°00' E 120°12'0 0.0
2018-Jul-08 12:21N 36°00' E 120°12'0 0.0
2018-Jul-08 03:02N 36°00' E 120°12'0 0.0
2018-Jul-08 02:56N 36°00' E 120°12'  

Dump ship's entire track history